createdAt,value
2019-02-07T00:00:45.745Z,14.73
2019-02-07T00:03:19.348Z,16.07
2019-02-07T00:05:53.610Z,14.43
2019-02-07T00:08:28.097Z,14.57
2019-02-07T00:11:03.141Z,15.50
2019-02-07T00:13:39.592Z,15.27
2019-02-07T00:16:12.896Z,16.23
2019-02-07T00:18:46.481Z,14.60
2019-02-07T00:21:19.983Z,14.87
2019-02-07T00:23:53.312Z,14.30
2019-02-07T00:26:27.628Z,14.83
2019-02-07T00:29:01.452Z,14.87
2019-02-07T00:31:35.191Z,15.00
2019-02-07T00:34:09.256Z,15.53
2019-02-07T00:36:42.812Z,14.97
2019-02-07T00:39:16.331Z,14.50
2019-02-07T00:41:50.558Z,14.43
2019-02-07T00:44:25.226Z,14.00
2019-02-07T00:46:59.905Z,14.53
2019-02-07T00:49:34.093Z,14.73
2019-02-07T00:52:07.496Z,13.90
2019-02-07T00:54:41.765Z,14.57
2019-02-07T00:57:15.432Z,14.17
2019-02-07T00:59:49.474Z,15.27
2019-02-07T01:02:24.683Z,14.23
2019-02-07T01:04:59.041Z,14.97
2019-02-07T01:07:32.870Z,14.97
2019-02-07T01:10:08.753Z,14.47
2019-02-07T01:12:44.161Z,15.80
2019-02-07T01:15:17.503Z,15.50
2019-02-07T01:17:51.721Z,14.63
2019-02-07T01:20:25.014Z,15.53
2019-02-07T01:22:59.412Z,14.30
2019-02-07T01:25:33.671Z,14.47
2019-02-07T01:28:06.941Z,14.50
2019-02-07T01:30:41.723Z,14.80
2019-02-07T01:33:15.107Z,15.00
2019-02-07T01:35:48.540Z,14.70
2019-02-07T01:38:22.523Z,13.63
2019-02-07T01:40:56.549Z,13.83
2019-02-07T01:43:31.379Z,14.00
2019-02-07T01:46:05.406Z,13.83
2019-02-07T01:48:39.069Z,13.70
2019-02-07T01:51:12.517Z,14.33
2019-02-07T01:53:46.206Z,13.77
2019-02-07T01:56:20.715Z,14.03
2019-02-07T01:58:54.327Z,13.57
2019-02-07T02:01:27.797Z,13.73
2019-02-07T02:04:01.846Z,13.83
2019-02-07T02:06:37.071Z,14.10
2019-02-07T02:09:11.775Z,12.97
2019-02-07T02:11:45.836Z,13.53
2019-02-07T02:14:19.623Z,14.13
2019-02-07T02:16:53.032Z,13.20
2019-02-07T02:19:27.002Z,13.17
2019-02-07T02:22:01.361Z,12.57
2019-02-07T02:24:35.209Z,12.70
2019-02-07T02:27:08.369Z,13.83
2019-02-07T02:29:42.790Z,13.83
2019-02-07T02:32:16.546Z,13.23
2019-02-07T02:34:49.899Z,13.90
2019-02-07T02:37:23.701Z,13.50
2019-02-07T02:39:56.921Z,14.40
2019-02-07T02:42:30.534Z,14.77
2019-02-07T02:45:04.053Z,15.37
2019-02-07T02:47:38.087Z,13.70
2019-02-07T02:50:13.255Z,14.37
2019-02-07T02:52:47.473Z,13.90
2019-02-07T02:55:33.473Z,14.70
2019-02-07T02:58:08.461Z,14.93
2019-02-07T03:01:06.581Z,14.30
2019-02-07T03:04:10.031Z,13.73
2019-02-07T03:07:16.798Z,14.60
2019-02-07T03:10:10.173Z,14.30
2019-02-07T03:12:55.245Z,14.53
2019-02-07T03:15:50.010Z,15.10
2019-02-07T03:18:50.031Z,14.03
2019-02-07T03:21:40.763Z,14.70
2019-02-07T03:24:54.884Z,14.67
2019-02-07T03:27:52.919Z,14.27
2019-02-07T03:30:44.799Z,14.40
2019-02-07T03:33:42.735Z,14.60
2019-02-07T03:36:26.307Z,14.30
2019-02-07T03:39:11.608Z,14.37
2019-02-07T03:42:05.590Z,13.97
2019-02-07T03:45:06.451Z,14.43
2019-02-07T03:47:58.538Z,14.30
2019-02-07T03:50:52.694Z,13.37
2019-02-07T03:53:51.893Z,13.13
2019-02-07T03:56:39.506Z,13.60
2019-02-07T03:59:44.267Z,12.97
2019-02-07T04:02:45.443Z,13.70
2019-02-07T04:06:02.466Z,13.17
2019-02-07T04:09:01.918Z,12.50
2019-02-07T04:12:06.261Z,13.77
2019-02-07T04:14:55.605Z,12.70
2019-02-07T04:17:48.802Z,12.87
2019-02-07T04:20:33.684Z,13.20
2019-02-07T04:23:26.337Z,11.97
2019-02-07T04:26:20.174Z,13.30
2019-02-07T04:29:30.523Z,12.50
2019-02-07T04:32:25.074Z,12.40
2019-02-07T04:35:26.427Z,12.30
2019-02-07T04:38:25.257Z,12.67
2019-02-07T04:41:17.910Z,12.80
2019-02-07T04:44:12.237Z,11.80
2019-02-07T04:47:07.175Z,11.83
2019-02-07T04:50:03.459Z,11.90
2019-02-07T04:52:58.906Z,11.83
2019-02-07T04:55:48.665Z,9.90
2019-02-07T04:58:34.237Z,11.60
2019-02-07T05:01:19.708Z,11.80
2019-02-07T05:04:13.974Z,11.60
2019-02-07T05:07:10.218Z,11.47
2019-02-07T05:10:07.673Z,10.90
2019-02-07T05:13:02.616Z,11.47
2019-02-07T05:16:05.064Z,10.33
2019-02-07T05:19:00.883Z,11.07
2019-02-07T05:22:07.097Z,10.43
2019-02-07T05:25:16.524Z,11.50
2019-02-07T05:28:11.209Z,10.53
2019-02-07T05:30:56.640Z,10.57
2019-02-07T05:33:57.335Z,12.33
2019-02-07T05:36:54.229Z,10.83
2019-02-07T05:39:33.015Z,11.60
2019-02-07T05:42:26.309Z,11.47
2019-02-07T05:45:19.981Z,11.47
2019-02-07T05:48:17.699Z,12.00
2019-02-07T05:51:11.233Z,11.03
2019-02-07T05:54:17.172Z,11.77
2019-02-07T05:57:13.578Z,11.17
2019-02-07T06:00:13.892Z,11.80
2019-02-07T06:03:06.823Z,12.07
2019-02-07T06:06:15.443Z,12.00
2019-02-07T06:09:08.386Z,12.23
2019-02-07T06:11:56.871Z,11.47
2019-02-07T06:14:45.474Z,10.73
2019-02-07T06:17:28.923Z,11.97
2019-02-07T06:20:17.716Z,11.07
2019-02-07T06:23:08.606Z,11.57
2019-02-07T06:25:58.611Z,11.93
2019-02-07T06:28:47.049Z,10.80
2019-02-07T06:31:38.029Z,11.40
2019-02-07T06:34:30.913Z,11.50
2019-02-07T06:37:13.375Z,11.77
2019-02-07T06:40:06.449Z,11.40
2019-02-07T06:43:05.621Z,9.93
2019-02-07T06:45:47.524Z,12.03
2019-02-07T06:48:57.534Z,11.67
2019-02-07T06:51:50.238Z,11.77
2019-02-07T06:54:38.498Z,11.77
2019-02-07T06:57:29.215Z,12.47
2019-02-07T07:00:33.394Z,11.67
2019-02-07T07:03:29.624Z,11.33
2019-02-07T07:06:29.028Z,12.77
2019-02-07T07:09:26.024Z,12.80
2019-02-07T07:12:14.637Z,13.20
2019-02-07T07:15:07.868Z,13.27
2019-02-07T07:18:13.081Z,13.70
2019-02-07T07:21:01.738Z,13.50
2019-02-07T07:24:00.866Z,13.73
2019-02-07T07:27:02.653Z,14.13
2019-02-07T07:30:07.934Z,14.27
2019-02-07T07:33:01.338Z,13.70
2019-02-07T07:36:03.595Z,15.13
2019-02-07T07:38:53.581Z,14.03
2019-02-07T07:41:46.382Z,14.27
2019-02-07T07:44:36.793Z,15.00
2019-02-07T07:47:35.717Z,14.37
2019-02-07T07:50:16.603Z,13.40
2019-02-07T07:53:14.349Z,13.87
2019-02-07T07:56:19.320Z,13.87
2019-02-07T07:59:12.176Z,13.33
2019-02-07T08:02:03.907Z,13.77
2019-02-07T08:04:53.898Z,13.10
2019-02-07T08:07:56.078Z,12.83
2019-02-07T08:10:45.883Z,12.60
2019-02-07T08:13:35.810Z,12.77
2019-02-07T08:16:25.035Z,12.53
2019-02-07T08:19:13.830Z,13.27
2019-02-07T08:22:05.345Z,12.60
2019-02-07T08:24:55.500Z,12.70
2019-02-07T08:27:44.963Z,13.03
2019-02-07T08:30:46.059Z,11.80
2019-02-07T08:33:39.483Z,12.10
2019-02-07T08:36:38.743Z,11.93
2019-02-07T08:39:44.473Z,11.40
2019-02-07T08:42:43.824Z,11.60
2019-02-07T08:45:33.036Z,11.40
2019-02-07T08:48:25.539Z,11.40
2019-02-07T08:51:18.607Z,10.83
2019-02-07T08:54:09.047Z,9.87
2019-02-07T08:57:04.236Z,9.67
2019-02-07T08:59:55.051Z,9.77
2019-02-07T09:02:51.604Z,8.50
2019-02-07T09:05:35.801Z,8.07
2019-02-07T09:08:28.678Z,7.87
2019-02-07T09:11:24.505Z,7.10
2019-02-07T09:14:09.641Z,6.33
2019-02-07T09:17:23.849Z,4.67
2019-02-07T09:20:13.976Z,2.63
2019-02-07T09:23:05.823Z,1.93
2019-02-07T09:25:56.200Z,2.30
2019-02-07T09:28:52.960Z,2.50
2019-02-07T09:31:43.311Z,3.20
2019-02-07T09:37:56.524Z,3.70
2019-02-07T09:40:56.368Z,3.93
2019-02-07T09:43:45.721Z,3.00
2019-02-07T09:46:49.967Z,3.97
2019-02-07T09:49:42.590Z,3.80
2019-02-07T09:52:31.743Z,3.60
2019-02-07T09:55:33.744Z,3.43
2019-02-07T09:58:41.770Z,4.20
2019-02-07T10:01:36.291Z,3.30
2019-02-07T10:04:46.578Z,4.33
2019-02-07T10:07:33.858Z,3.53
2019-02-07T10:10:41.924Z,3.97
2019-02-07T10:13:31.845Z,3.70
2019-02-07T10:16:24.922Z,4.00
2019-02-07T10:19:16.811Z,4.00
2019-02-07T10:22:05.732Z,3.17
2019-02-07T10:24:58.726Z,4.37
2019-02-07T10:28:07.089Z,3.23
2019-02-07T10:30:56.970Z,3.80
2019-02-07T10:33:45.434Z,4.33
2019-02-07T10:37:05.223Z,4.00
2019-02-07T10:43:02.538Z,4.27
2019-02-07T10:45:51.080Z,4.33
2019-02-07T10:48:44.675Z,4.03
2019-02-07T10:51:43.732Z,3.90
2019-02-07T10:54:32.372Z,4.03
2019-02-07T10:57:45.445Z,4.23
2019-02-07T11:00:53.472Z,4.50
2019-02-07T11:03:55.769Z,3.53
2019-02-07T11:06:40.356Z,3.73
2019-02-07T11:09:42.460Z,4.93
2019-02-07T11:12:32.539Z,4.17
2019-02-07T11:15:25.492Z,4.37
2019-02-07T11:18:30.645Z,4.20
2019-02-07T11:21:26.272Z,4.23
2019-02-07T11:24:31.392Z,4.00
2019-02-07T11:27:23.278Z,4.10
2019-02-07T11:30:22.841Z,4.37
2019-02-07T11:33:30.989Z,3.80
2019-02-07T11:36:21.766Z,3.77
2019-02-07T11:39:22.971Z,3.53
2019-02-07T11:42:12.946Z,3.50
2019-02-07T11:45:21.497Z,3.83
2019-02-07T11:48:11.276Z,3.73
2019-02-07T11:51:07.390Z,4.40
2019-02-07T11:54:12.907Z,3.73
2019-02-07T11:57:21.434Z,4.27
2019-02-07T12:00:17.060Z,3.73
2019-02-07T12:03:07.204Z,3.67
2019-02-07T12:05:58.078Z,3.90
2019-02-07T12:08:46.966Z,3.37
2019-02-07T12:11:37.422Z,4.50
2019-02-07T12:14:45.756Z,4.50
2019-02-07T12:17:37.542Z,3.70
2019-02-07T12:20:43.458Z,3.27
2019-02-07T12:23:32.220Z,3.77
2019-02-07T12:26:22.047Z,3.30
2019-02-07T12:29:12.105Z,2.63
2019-02-07T12:32:16.692Z,3.70
2019-02-07T12:35:05.521Z,3.20
2019-02-07T12:37:56.033Z,3.87
2019-02-07T12:40:48.761Z,3.27
2019-02-07T12:43:47.932Z,3.23
2019-02-07T12:46:47.231Z,4.17
2019-02-07T12:49:38.748Z,2.60
2019-02-07T12:52:28.815Z,4.03
2019-02-07T12:55:18.874Z,4.00
2019-02-07T12:58:09.119Z,3.27
2019-02-07T13:01:08.070Z,3.30
2019-02-07T13:04:00.939Z,3.20
2019-02-07T13:06:51.143Z,2.83
2019-02-07T13:09:47.234Z,2.97
2019-02-07T13:12:43.891Z,2.93
2019-02-07T13:15:41.677Z,2.73
2019-02-07T13:18:45.324Z,2.87
2019-02-07T13:21:58.006Z,3.53
2019-02-07T13:24:57.110Z,2.83
2019-02-07T13:27:55.696Z,3.20
2019-02-07T13:30:50.367Z,3.37
2019-02-07T13:33:57.590Z,2.40
2019-02-07T13:36:59.047Z,3.23
2019-02-07T13:40:02.091Z,3.37
2019-02-07T13:42:54.539Z,3.03
2019-02-07T13:45:42.209Z,3.10
2019-02-07T13:48:41.588Z,2.20
2019-02-07T13:51:48.687Z,2.67
2019-02-07T13:54:57.344Z,2.63
2019-02-07T13:58:03.265Z,3.23
2019-02-07T14:00:49.975Z,2.33
2019-02-07T14:03:55.923Z,2.53
2019-02-07T14:06:51.261Z,2.90
2019-02-07T14:09:46.425Z,3.07
2019-02-07T14:12:42.359Z,2.77
2019-02-07T14:15:51.769Z,2.67
2019-02-07T14:18:35.456Z,2.70
2019-02-07T14:21:29.987Z,3.00
2019-02-07T14:24:20.473Z,2.67
2019-02-07T14:27:20.487Z,2.57
2019-02-07T14:30:14.680Z,2.43
2019-02-07T14:33:15.473Z,2.33
2019-02-07T14:36:14.179Z,2.67
2019-02-07T14:39:02.258Z,2.53
2019-02-07T14:41:47.206Z,2.60
2019-02-07T14:44:45.130Z,2.07
2019-02-07T14:47:18.519Z,3.00
2019-02-07T14:49:51.705Z,2.10
2019-02-07T14:52:24.885Z,2.50
2019-02-07T14:54:59.227Z,2.57
2019-02-07T14:57:31.781Z,2.63
2019-02-07T15:00:06.697Z,2.57
2019-02-07T15:02:39.165Z,2.53
2019-02-07T15:05:12.184Z,2.43
2019-02-07T15:07:44.964Z,2.53
2019-02-07T15:10:18.486Z,2.17
2019-02-07T15:12:50.934Z,2.10
2019-02-07T15:15:23.349Z,2.20
2019-02-07T15:17:55.860Z,1.67
2019-02-07T15:20:28.958Z,2.70
2019-02-07T15:23:01.505Z,2.17
2019-02-07T15:25:36.451Z,2.53
2019-02-07T15:28:08.610Z,2.30
2019-02-07T15:30:42.478Z,2.33
2019-02-07T15:33:16.863Z,2.40
2019-02-07T15:35:51.215Z,2.03
2019-02-07T15:38:23.214Z,2.53
2019-02-07T15:40:55.273Z,2.97
2019-02-07T15:43:27.910Z,2.33
2019-02-07T15:46:00.455Z,2.50
2019-02-07T15:48:32.456Z,3.10
2019-02-07T15:51:08.577Z,2.77
2019-02-07T15:53:41.558Z,2.93
2019-02-07T15:56:14.023Z,2.30
2019-02-07T15:59:05.374Z,3.10
2019-02-07T16:01:50.982Z,2.40
2019-02-07T16:04:40.110Z,2.53
2019-02-07T16:07:13.757Z,2.60
2019-02-07T16:09:46.149Z,2.40
2019-02-07T16:12:18.565Z,2.43
2019-02-07T16:14:51.223Z,2.37
2019-02-07T16:17:25.048Z,2.37
2019-02-07T16:19:58.868Z,2.73
2019-02-07T16:22:32.554Z,2.40
2019-02-07T16:25:08.028Z,2.60
2019-02-07T16:27:41.084Z,2.50
2019-02-07T16:30:17.859Z,2.27
2019-02-07T16:32:50.538Z,2.43
2019-02-07T16:35:25.395Z,3.10
2019-02-07T16:37:58.121Z,2.87
2019-02-07T16:40:50.212Z,2.60
2019-02-07T16:43:24.007Z,2.93
2019-02-07T16:45:58.401Z,2.97
2019-02-07T16:48:30.591Z,3.20
2019-02-07T16:51:03.502Z,2.57
2019-02-07T16:53:36.343Z,2.77
2019-02-07T16:56:08.102Z,2.43
2019-02-07T16:58:44.743Z,2.67
2019-02-07T17:01:21.096Z,2.40
2019-02-07T17:03:55.662Z,2.60
2019-02-07T17:06:28.861Z,2.60
2019-02-07T17:09:01.732Z,2.03
2019-02-07T17:11:39.126Z,1.90
2019-02-07T17:14:11.876Z,2.63
2019-02-07T17:16:47.022Z,2.13
2019-02-07T17:19:19.426Z,2.27
2019-02-07T17:21:54.071Z,2.40
2019-02-07T17:24:29.086Z,2.20
2019-02-07T17:27:04.893Z,2.20
2019-02-07T17:29:37.443Z,2.10
2019-02-07T17:32:09.525Z,2.53
2019-02-07T17:34:41.797Z,1.93
2019-02-07T17:37:14.589Z,2.40
2019-02-07T17:39:52.932Z,2.23
2019-02-07T17:42:25.684Z,2.10
2019-02-07T17:44:58.417Z,2.23
2019-02-07T17:47:30.868Z,2.43
2019-02-07T17:50:02.985Z,2.10
2019-02-07T17:52:37.827Z,2.23
2019-02-07T17:55:16.486Z,2.30
2019-02-07T17:57:59.410Z,2.50
2019-02-07T18:01:04.719Z,2.20
2019-02-07T18:03:38.784Z,2.60
2019-02-07T18:06:12.121Z,2.10
2019-02-07T18:08:44.597Z,2.30
2019-02-07T18:11:16.961Z,3.00
2019-02-07T18:13:49.731Z,2.47
2019-02-07T18:16:22.896Z,1.93
2019-02-07T18:18:56.445Z,2.30
2019-02-07T18:21:34.339Z,2.37
2019-02-07T18:24:09.379Z,2.37
2019-02-07T18:26:42.187Z,2.57
2019-02-07T18:29:16.465Z,2.53
2019-02-07T18:31:53.022Z,1.93
2019-02-07T18:34:26.897Z,2.30
2019-02-07T18:36:58.925Z,2.50
2019-02-07T18:39:31.172Z,2.23
2019-02-07T18:42:04.968Z,2.43
2019-02-07T18:44:38.839Z,2.43
2019-02-07T18:47:12.631Z,2.20
2019-02-07T18:49:47.284Z,2.33
2019-02-07T18:52:22.128Z,2.90
2019-02-07T18:54:59.155Z,2.73
2019-02-07T18:57:33.125Z,2.30
2019-02-07T19:00:09.247Z,2.50
2019-02-07T19:02:47.436Z,2.50
2019-02-07T19:05:24.051Z,2.30
2019-02-07T19:07:57.811Z,1.93
2019-02-07T19:10:33.223Z,2.30
2019-02-07T19:13:08.725Z,2.50
2019-02-07T19:15:53.459Z,1.80
2019-02-07T19:18:30.928Z,2.03
2019-02-07T19:21:06.462Z,2.10
2019-02-07T19:23:42.673Z,1.97
2019-02-07T19:26:21.226Z,2.10
2019-02-07T19:28:54.694Z,1.70
2019-02-07T19:31:29.258Z,1.70
2019-02-07T19:34:05.926Z,1.90
2019-02-07T19:36:43.752Z,2.00
2019-02-07T19:39:18.906Z,1.60
2019-02-07T19:41:52.436Z,2.00
2019-02-07T19:44:26.372Z,1.80
2019-02-07T19:47:01.853Z,1.93
2019-02-07T19:49:39.965Z,1.90
2019-02-07T19:52:20.494Z,1.83
2019-02-07T19:54:59.102Z,2.00
2019-02-07T19:57:37.712Z,1.97
2019-02-07T20:00:28.887Z,1.93
2019-02-07T20:03:04.682Z,1.70
2019-02-07T20:05:39.854Z,1.87
2019-02-07T20:08:16.173Z,2.03
2019-02-07T20:10:48.544Z,1.63
2019-02-07T20:13:23.378Z,1.80
2019-02-07T20:15:58.479Z,1.67
2019-02-07T20:18:34.149Z,2.17
2019-02-07T20:21:08.181Z,2.23
2019-02-07T20:23:41.746Z,1.90
2019-02-07T20:26:15.481Z,1.57
2019-02-07T20:28:48.303Z,1.80
2019-02-07T20:31:24.704Z,1.63
2019-02-07T20:33:59.132Z,2.07
2019-02-07T20:36:31.625Z,2.30
2019-02-07T20:39:09.117Z,1.93
2019-02-07T20:41:45.071Z,2.17
2019-02-07T20:44:19.114Z,1.73
2019-02-07T20:46:54.453Z,2.10
2019-02-07T20:49:27.473Z,2.03
2019-02-07T20:52:03.932Z,2.17
2019-02-07T20:54:39.215Z,2.17
2019-02-07T20:57:15.714Z,2.20
2019-02-07T20:59:51.857Z,2.00
2019-02-07T21:02:31.102Z,1.83
2019-02-07T21:05:10.403Z,1.90
2019-02-07T21:07:50.725Z,1.60
2019-02-07T21:10:24.933Z,1.80
2019-02-07T21:13:00.148Z,1.87
2019-02-07T21:15:34.603Z,2.10
2019-02-07T21:18:09.635Z,2.00
2019-02-07T21:20:45.536Z,1.77
2019-02-07T21:23:21.323Z,2.17
2019-02-07T21:26:04.343Z,1.90
2019-02-07T21:28:38.430Z,1.80
2019-02-07T21:31:15.859Z,1.97
2019-02-07T21:33:51.497Z,1.60
2019-02-07T21:36:26.146Z,2.00
2019-02-07T21:39:00.659Z,2.03
2019-02-07T21:41:34.731Z,1.77
2019-02-07T21:44:09.300Z,2.00
2019-02-07T21:46:48.163Z,1.63
2019-02-07T21:49:22.212Z,2.30
2019-02-07T21:51:56.646Z,2.00
2019-02-07T21:54:30.689Z,1.90
2019-02-07T21:57:06.526Z,1.97
2019-02-07T21:59:40.751Z,1.80
2019-02-07T22:02:15.659Z,1.97
2019-02-07T22:04:50.045Z,2.13
2019-02-07T22:07:25.541Z,2.03
2019-02-07T22:09:59.815Z,1.80
2019-02-07T22:12:37.931Z,2.13
2019-02-07T22:15:18.117Z,1.80
2019-02-07T22:17:52.528Z,1.80
2019-02-07T22:20:30.828Z,1.70
2019-02-07T22:23:09.456Z,1.67
2019-02-07T22:25:43.579Z,2.10
2019-02-07T22:28:17.374Z,2.00
2019-02-07T22:30:51.492Z,2.03
2019-02-07T22:33:28.818Z,1.80
2019-02-07T22:36:09.357Z,2.10
2019-02-07T22:38:42.764Z,2.27
2019-02-07T22:41:25.171Z,2.47
2019-02-07T22:44:02.643Z,2.03
2019-02-07T22:46:36.195Z,2.23
2019-02-07T22:49:09.761Z,1.90
2019-02-07T22:51:42.918Z,1.60
2019-02-07T22:54:16.650Z,2.10
2019-02-07T22:56:49.643Z,2.50
2019-02-07T22:59:23.078Z,1.80
2019-02-07T23:01:58.126Z,1.90
2019-02-07T23:04:33.181Z,2.60
2019-02-07T23:07:06.946Z,2.10
2019-02-07T23:09:42.294Z,1.80
2019-02-07T23:12:16.790Z,2.07
2019-02-07T23:14:50.795Z,1.60
2019-02-07T23:17:24.447Z,1.87
2019-02-07T23:19:59.731Z,1.90
2019-02-07T23:22:34.526Z,2.30
2019-02-07T23:25:09.362Z,1.67
2019-02-07T23:27:45.276Z,1.90
2019-02-07T23:30:21.949Z,2.00
2019-02-07T23:32:55.092Z,1.73
2019-02-07T23:35:28.502Z,2.00
2019-02-07T23:38:02.500Z,2.53
2019-02-07T23:40:39.237Z,2.17
2019-02-07T23:43:14.424Z,1.70
2019-02-07T23:45:48.241Z,1.90
2019-02-07T23:48:23.311Z,2.20
2019-02-07T23:50:56.146Z,2.00
2019-02-07T23:53:31.565Z,1.97
2019-02-07T23:56:05.230Z,2.20
2019-02-07T23:58:38.684Z,2.03
